Time;durP1;ratioP1;P1;durP2;ratioP2;P2;SDS_P1;SDS_P2;PMS_P1;PMS_P2;Temp;Humidity;BMP_temperature;BMP_pressure;BME280_temperature;BME280_humidity;BME280_pressure;Samples;Min_cycle;Max_cycle;Signal;HPM_P1;HPM_P2
2023/03/09 00:00:32;;;;;;;3.33;1.37;;;;;;;9.81;nan;95660.06;5073845;28;20205;-71
2023/03/09 00:02:58;;;;;;;3.70;1.10;;;;;;;9.81;nan;95657.41;5073274;28;20231;-71
2023/03/09 00:05:25;;;;;;;2.17;1.17;;;;;;;9.84;nan;95656.06;5073025;28;20204;-71
2023/03/09 00:07:54;;;;;;;5.07;1.40;;;;;;;9.76;nan;95646.00;5072981;28;20541;-71
2023/03/09 00:10:20;;;;;;;3.03;1.40;;;;;;;9.70;nan;95647.09;5073297;28;20204;-71
2023/03/09 00:12:47;;;;;;;4.57;1.70;;;;;;;9.76;nan;95659.28;5073166;28;20235;-71
2023/03/09 00:15:13;;;;;;;3.83;1.50;;;;;;;9.75;nan;95668.31;5073043;28;20212;-71
2023/03/09 00:17:40;;;;;;;4.27;1.40;;;;;;;9.89;nan;95690.53;5073249;28;20193;-71
2023/03/09 00:20:17;;;;;;;3.73;1.60;;;;;;;10.02;nan;95696.06;5073192;28;20216;-71
2023/03/09 00:22:53;;;;;;;4.27;1.60;;;;;;;10.03;nan;95689.69;5073010;28;20224;-71
2023/03/09 00:25:21;;;;;;;2.20;1.60;;;;;;;10.00;nan;95723.94;5073182;28;20188;-71
2023/03/09 00:27:50;;;;;;;3.70;1.43;;;;;;;10.16;nan;95742.22;5073265;28;20216;-70
2023/03/09 00:30:17;;;;;;;1.23;0.90;;;;;;;10.33;nan;95747.97;5073022;28;20208;-72
2023/03/09 00:32:44;;;;;;;2.20;1.10;;;;;;;10.30;nan;95737.09;5073714;28;20217;-71
2023/03/09 00:35:10;;;;;;;1.20;0.90;;;;;;;10.31;nan;95736.03;5076758;28;20231;-71
2023/03/09 00:37:38;;;;;;;1.73;1.00;;;;;;;10.35;nan;95760.97;5076733;28;20212;-71
2023/03/09 00:40:07;;;;;;;3.30;1.00;;;;;;;10.28;nan;95760.50;5076749;28;20209;-71
2023/03/09 00:42:34;;;;;;;2.23;0.73;;;;;;;10.26;nan;95765.25;5076496;28;20232;-71
2023/03/09 00:45:00;;;;;;;1.83;0.90;;;;;;;10.31;nan;95781.16;5076894;28;20204;-71
2023/03/09 00:47:27;;;;;;;2.17;0.70;;;;;;;10.20;nan;95779.63;5076247;28;20664;-71
2023/03/09 00:49:54;;;;;;;1.60;0.93;;;;;;;10.15;nan;95782.31;5076560;28;20211;-71
2023/03/09 00:52:20;;;;;;;2.00;0.60;;;;;;;10.13;nan;95779.91;5076446;28;20224;-71
2023/03/09 00:54:46;;;;;;;0.93;0.73;;;;;;;10.08;nan;95771.97;5076409;28;20200;-71
2023/03/09 00:57:13;;;;;;;0.93;0.67;;;;;;;10.08;nan;95771.16;5076418;28;20208;-71
2023/03/09 00:59:44;;;;;;;0.80;0.60;;;;;;;10.05;nan;95766.41;5076037;28;20568;-71
2023/03/09 01:02:10;;;;;;;0.60;0.50;;;;;;;10.06;nan;95768.81;5076157;28;20228;-71
2023/03/09 01:04:38;;;;;;;0.50;0.50;;;;;;;10.13;nan;95781.75;5075963;28;20572;-71
2023/03/09 01:07:05;;;;;;;0.30;0.30;;;;;;;10.17;nan;95796.91;5075921;28;20216;-71
2023/03/09 01:09:31;;;;;;;0.90;0.40;;;;;;;10.01;nan;95778.59;5076150;28;20228;-71
2023/03/09 01:11:57;;;;;;;1.27;0.40;;;;;;;10.12;nan;95782.84;5076052;28;20220;-71
2023/03/09 01:14:24;;;;;;;0.40;0.40;;;;;;;10.05;nan;95777.03;5076109;28;20211;-71
2023/03/09 01:16:50;;;;;;;3.60;0.50;;;;;;;9.96;nan;95791.91;5075687;28;20216;-71
2023/03/09 01:19:16;;;;;;;0.73;0.37;;;;;;;10.01;nan;95802.50;5075992;28;20209;-71
2023/03/09 01:21:43;;;;;;;0.70;0.60;;;;;;;9.87;nan;95790.84;5075765;28;20236;-71
2023/03/09 01:24:09;;;;;;;0.37;0.37;;;;;;;9.92;nan;95773.03;5075886;28;20242;-71
2023/03/09 01:26:35;;;;;;;0.40;0.30;;;;;;;9.80;nan;95769.09;5075871;28;20200;-71
2023/03/09 01:29:02;;;;;;;0.93;0.40;;;;;;;9.70;nan;95785.03;5075870;28;20201;-71
2023/03/09 01:31:28;;;;;;;0.77;0.30;;;;;;;9.56;nan;95776.03;5075743;28;20201;-72
2023/03/09 01:33:55;;;;;;;0.30;0.30;;;;;;;9.65;nan;95780.53;5075423;28;20678;-71
2023/03/09 01:36:21;;;;;;;0.70;0.30;;;;;;;9.62;nan;95780.28;5075767;28;20666;-71
2023/03/09 01:38:48;;;;;;;0.33;0.30;;;;;;;9.54;nan;95799.38;5076200;28;20209;-71
2023/03/09 01:41:17;;;;;;;0.27;0.27;;;;;;;9.64;nan;95810.00;5075237;28;20687;-70
2023/03/09 01:43:45;;;;;;;1.23;0.30;;;;;;;9.56;nan;95815.81;5075347;28;20631;-71
2023/03/09 01:46:21;;;;;;;0.20;0.20;;;;;;;9.68;nan;95787.19;5074919;28;20579;-71
2023/03/09 01:49:03;;;;;;;0.50;0.30;;;;;;;9.54;nan;95796.72;5076272;28;20214;-71
2023/03/09 01:51:37;;;;;;;0.70;0.30;;;;;;;9.56;nan;95778.69;5074938;28;20207;-71
2023/03/09 01:54:07;;;;;;;0.67;0.50;;;;;;;9.58;nan;95800.44;5075423;28;20196;-71
2023/03/09 01:56:36;;;;;;;2.00;0.53;;;;;;;9.61;nan;95810.53;5074990;28;20209;-71
2023/03/09 01:59:07;;;;;;;0.83;0.40;;;;;;;9.58;nan;95813.69;5074081;28;20201;-71
2023/03/09 02:01:36;;;;;;;1.23;0.50;;;;;;;9.56;nan;95818.47;5073819;28;20217;-71
2023/03/09 02:04:08;;;;;;;1.17;0.40;;;;;;;9.42;nan;95825.38;5075169;28;20258;-71
2023/03/09 02:06:35;;;;;;;1.80;0.30;;;;;;;9.44;nan;95816.09;5073905;28;20189;-71
2023/03/09 02:09:12;;;;;;;1.37;0.30;;;;;;;9.45;nan;95803.63;5075005;28;20204;-71
2023/03/09 02:11:40;;;;;;;0.30;0.30;;;;;;;9.40;nan;95793.81;5073764;28;20188;-71
2023/03/09 02:14:08;;;;;;;0.93;0.50;;;;;;;9.34;nan;95789.59;5074627;28;20669;-71
2023/03/09 02:16:35;;;;;;;1.50;0.40;;;;;;;9.36;nan;95799.91;5073319;28;20590;-71
2023/03/09 02:19:01;;;;;;;0.63;0.30;;;;;;;9.37;nan;95791.69;5074804;28;20205;-71
2023/03/09 02:21:52;;;;;;;0.20;0.20;;;;;;;9.35;nan;95785.88;5074400;28;20561;-71
2023/03/09 02:24:33;;;;;;;0.20;0.20;;;;;;;9.26;nan;95784.00;5074473;28;20188;-71
2023/03/09 02:27:21;;;;;;;1.30;0.50;;;;;;;9.31;nan;95789.31;5074743;28;20192;-71
2023/03/09 02:29:48;;;;;;;0.20;0.20;;;;;;;9.29;nan;95796.75;5074605;28;20208;-70
2023/03/09 02:32:15;;;;;;;0.20;0.20;;;;;;;9.25;nan;95799.13;5074196;28;20718;-71
2023/03/09 02:34:42;;;;;;;0.30;0.20;;;;;;;9.28;nan;95803.13;5074456;28;20215;-70
2023/03/09 02:37:33;;;;;;;0.20;0.20;;;;;;;9.19;nan;95791.44;5074091;28;20209;-70
2023/03/09 02:40:14;;;;;;;0.20;0.20;;;;;;;9.21;nan;95791.97;5074628;28;20192;-71
2023/03/09 02:42:42;;;;;;;0.77;0.20;;;;;;;9.22;nan;95791.69;5073871;28;20228;-71
2023/03/09 02:45:11;;;;;;;0.20;0.20;;;;;;;9.26;nan;95800.72;5073984;28;20209;-70
2023/03/09 02:47:38;;;;;;;1.60;0.30;;;;;;;9.21;nan;95794.63;5072772;28;20215;-70
2023/03/09 02:50:07;;;;;;;0.50;0.30;;;;;;;9.13;nan;95800.44;5073672;28;20208;-70
2023/03/09 02:52:33;;;;;;;0.20;0.20;;;;;;;9.17;nan;95810.25;5073840;28;20224;-71
2023/03/09 02:54:59;;;;;;;0.20;0.20;;;;;;;9.26;nan;95815.81;5073823;28;20212;-70
2023/03/09 02:57:26;;;;;;;0.23;0.23;;;;;;;9.22;nan;95828.00;5073994;28;20212;-70
2023/03/09 02:59:52;;;;;;;0.30;0.30;;;;;;;9.28;nan;95840.22;5074081;28;20216;-71
2023/03/09 03:02:19;;;;;;;1.30;0.30;;;;;;;9.41;nan;95850.31;5073861;28;20247;-70
2023/03/09 03:04:45;;;;;;;0.40;0.30;;;;;;;9.40;nan;95846.84;5073917;28;20212;-71
2023/03/09 03:07:11;;;;;;;0.40;0.30;;;;;;;9.46;nan;95855.63;5073960;28;20204;-71
2023/03/09 03:09:38;;;;;;;0.57;0.40;;;;;;;9.52;nan;95865.16;5073594;28;20693;-70
2023/03/09 03:12:04;;;;;;;0.73;0.33;;;;;;;9.47;nan;95873.91;5073541;28;20230;-71
2023/03/09 03:14:31;;;;;;;0.40;0.40;;;;;;;9.28;nan;95896.69;5073844;28;20215;-71
2023/03/09 03:16:57;;;;;;;0.87;0.30;;;;;;;9.45;nan;95899.09;5073364;28;20213;-71
2023/03/09 03:19:24;;;;;;;0.40;0.40;;;;;;;9.42;nan;95926.16;5073816;28;20576;-71
2023/03/09 03:21:50;;;;;;;0.50;0.30;;;;;;;9.48;nan;95925.09;5073618;28;20228;-71
2023/03/09 03:24:17;;;;;;;0.30;0.30;;;;;;;9.52;nan;95942.88;5073752;28;20212;-71
2023/03/09 03:26:44;;;;;;;0.40;0.40;;;;;;;9.37;nan;95958.75;5073407;28;20671;-71
2023/03/09 03:29:10;;;;;;;0.40;0.30;;;;;;;9.44;nan;95975.22;5073557;28;20200;-70
2023/03/09 03:31:37;;;;;;;0.40;0.40;;;;;;;9.42;nan;95981.84;5073261;28;20671;-71
2023/03/09 03:34:03;;;;;;;0.73;0.30;;;;;;;9.49;nan;95979.72;5073562;28;20208;-71
2023/03/09 03:36:30;;;;;;;0.30;0.30;;;;;;;9.26;nan;95977.53;5073240;28;20204;-71
2023/03/09 03:38:56;;;;;;;0.30;0.30;;;;;;;9.34;nan;95982.34;5073515;28;20207;-71
2023/03/09 03:41:23;;;;;;;0.60;0.30;;;;;;;9.26;nan;95990.78;5073310;28;20204;-71
2023/03/09 03:43:49;;;;;;;0.67;0.40;;;;;;;9.29;nan;95990.28;5073004;28;20230;-71
2023/03/09 03:46:15;;;;;;;0.63;0.40;;;;;;;9.05;nan;96003.16;5072926;28;20220;-71
2023/03/09 03:48:42;;;;;;;2.20;0.50;;;;;;;9.11;nan;96001.34;5073065;28;20690;-71
2023/03/09 03:51:09;;;;;;;0.47;0.30;;;;;;;9.21;nan;96009.34;5073364;28;20281;-71
2023/03/09 03:53:35;;;;;;;0.37;0.33;;;;;;;9.16;nan;96010.13;5072987;28;20220;-71
2023/03/09 03:56:02;;;;;;;1.20;0.40;;;;;;;9.13;nan;96017.78;5072958;28;20201;-71
2023/03/09 03:58:29;;;;;;;2.27;0.57;;;;;;;9.17;nan;96027.63;5072834;28;20211;-70
2023/03/09 04:00:56;;;;;;;1.10;0.60;;;;;;;9.15;nan;96034.22;5073696;28;20206;-70
2023/03/09 04:03:23;;;;;;;1.63;0.60;;;;;;;9.04;nan;96025.44;5072736;28;20339;-70
2023/03/09 04:05:49;;;;;;;1.10;0.60;;;;;;;8.99;nan;96021.94;5072595;28;20690;-70
2023/03/09 04:08:16;;;;;;;2.93;0.60;;;;;;;9.10;nan;96040.28;5074375;28;20300;-71
2023/03/09 04:10:42;;;;;;;2.20;0.80;;;;;;;9.09;nan;96044.00;5076574;28;20212;-71
2023/03/09 04:13:09;;;;;;;1.30;0.60;;;;;;;9.09;nan;96057.25;5076451;28;20242;-71
2023/03/09 04:15:36;;;;;;;3.07;0.87;;;;;;;9.03;nan;96053.00;5076482;28;20717;-71
2023/03/09 04:18:03;;;;;;;3.37;1.10;;;;;;;9.11;nan;96051.69;5076685;28;20671;-71
2023/03/09 04:20:29;;;;;;;2.60;0.93;;;;;;;9.10;nan;96055.41;5076841;28;20213;-71
2023/03/09 04:22:56;;;;;;;2.77;0.77;;;;;;;9.12;nan;96071.84;5076762;28;20267;-71
2023/03/09 04:25:22;;;;;;;2.77;0.87;;;;;;;9.14;nan;96083.00;5076855;28;20208;-70
2023/03/09 04:27:48;;;;;;;2.60;1.00;;;;;;;9.19;nan;96097.06;5076595;28;20549;-71
2023/03/09 04:30:20;;;;;;;3.87;1.43;;;;;;;9.27;nan;96107.19;5076875;28;20205;-71
2023/03/09 04:32:46;;;;;;;6.53;1.20;;;;;;;9.27;nan;96109.03;5076194;28;20224;-71
2023/03/09 04:35:12;;;;;;;5.97;1.30;;;;;;;9.33;nan;96130.00;5076154;28;20208;-70
2023/03/09 04:37:39;;;;;;;5.63;1.20;;;;;;;9.35;nan;96132.41;5076415;28;20204;-70
2023/03/09 04:40:05;;;;;;;5.00;1.27;;;;;;;9.28;nan;96147.75;5076331;28;20220;-71
2023/03/09 04:42:32;;;;;;;5.17;1.20;;;;;;;9.23;nan;96164.44;5076190;28;20238;-70
2023/03/09 04:44:59;;;;;;;2.97;1.00;;;;;;;9.12;nan;96167.28;5076941;28;20219;-70
2023/03/09 04:47:25;;;;;;;5.27;1.30;;;;;;;9.10;nan;96172.03;5076293;28;20208;-70
2023/03/09 04:49:51;;;;;;;6.60;1.47;;;;;;;9.06;nan;96176.25;5076243;28;20204;-71
2023/03/09 04:52:18;;;;;;;4.50;1.50;;;;;;;9.08;nan;96180.25;5076135;28;20231;-70
2023/03/09 04:54:44;;;;;;;7.40;1.60;;;;;;;9.02;nan;96183.09;5075822;28;20702;-70
2023/03/09 04:57:11;;;;;;;2.73;1.20;;;;;;;8.93;nan;96189.94;5075771;28;20212;-70
2023/03/09 04:59:37;;;;;;;5.70;1.60;;;;;;;9.10;nan;96191.38;5075972;28;20270;-71
2023/03/09 05:02:03;;;;;;;5.40;1.43;;;;;;;9.26;nan;96189.63;5075214;28;20694;-70
2023/03/09 05:04:30;;;;;;;5.93;1.73;;;;;;;9.12;nan;96197.22;5075722;28;20525;-70
2023/03/09 05:06:56;;;;;;;9.93;2.10;;;;;;;9.16;nan;96203.63;5075817;28;20271;-70
2023/03/09 05:09:22;;;;;;;5.37;1.80;;;;;;;9.19;nan;96218.22;5075839;28;20208;-70
2023/03/09 05:11:51;;;;;;;5.90;2.23;;;;;;;9.18;nan;96222.72;5075669;28;20232;-70
2023/03/09 05:14:19;;;;;;;4.60;1.10;;;;;;;9.30;nan;96225.19;5075711;28;20207;-70
2023/03/09 05:16:46;;;;;;;5.00;1.40;;;;;;;9.24;nan;96224.34;5075555;28;20274;-71
2023/03/09 05:19:12;;;;;;;6.03;1.10;;;;;;;9.20;nan;96228.59;5074459;28;20215;-70
2023/03/09 05:21:39;;;;;;;4.97;1.50;;;;;;;9.15;nan;96241.78;5075460;28;20204;-71
2023/03/09 05:24:05;;;;;;;4.70;1.40;;;;;;;9.03;nan;96243.00;5076074;28;20224;-70
2023/03/09 05:26:32;;;;;;;8.53;1.80;;;;;;;9.14;nan;96245.47;5075270;28;20686;-70
2023/03/09 05:28:58;;;;;;;4.50;1.43;;;;;;;9.14;nan;96247.34;5075931;28;20536;-71
2023/03/09 05:31:24;;;;;;;4.57;1.53;;;;;;;9.23;nan;96253.78;5075502;28;20204;-70
2023/03/09 05:33:53;;;;;;;6.53;1.80;;;;;;;9.25;nan;96251.66;5075052;28;20231;-71
2023/03/09 05:36:22;;;;;;;4.60;1.40;;;;;;;9.23;nan;96256.44;5075271;28;20200;-70
2023/03/09 05:38:50;;;;;;;7.97;1.70;;;;;;;9.11;nan;96258.44;5074936;28;20262;-70
2023/03/09 05:41:17;;;;;;;5.87;1.50;;;;;;;9.20;nan;96267.53;5074829;28;20213;-70
2023/03/09 05:43:44;;;;;;;7.43;1.80;;;;;;;9.18;nan;96269.63;5074481;28;20660;-71
2023/03/09 05:46:15;;;;;;;7.50;1.93;;;;;;;9.19;nan;96277.31;5074904;28;20200;-71
2023/03/09 05:48:42;;;;;;;3.87;1.60;;;;;;;9.26;nan;96283.22;5074758;28;20683;-71
2023/03/09 05:51:10;;;;;;;9.33;1.80;;;;;;;9.24;nan;96295.16;5074925;28;20200;-70
2023/03/09 05:53:37;;;;;;;5.17;1.37;;;;;;;9.21;nan;96293.81;5074476;28;20224;-71
2023/03/09 05:56:07;;;;;;;7.33;1.90;;;;;;;9.20;nan;96309.94;5074721;28;20205;-71
2023/03/09 05:58:34;;;;;;;7.50;1.50;;;;;;;9.16;nan;96308.84;5074617;28;20208;-71
2023/03/09 06:01:01;;;;;;;6.53;1.93;;;;;;;9.11;nan;96308.81;5074824;28;20218;-71
2023/03/09 06:03:27;;;;;;;5.77;1.50;;;;;;;9.16;nan;96319.47;5074266;28;20566;-71
2023/03/09 06:06:01;;;;;;;6.47;1.60;;;;;;;9.25;nan;96331.19;5074509;28;20215;-71
2023/03/09 06:08:29;;;;;;;5.13;1.90;;;;;;;9.23;nan;96338.63;5074652;28;20208;-71
2023/03/09 06:10:59;;;;;;;4.83;1.70;;;;;;;9.27;nan;96342.34;5074433;28;20207;-71
2023/03/09 06:13:25;;;;;;;6.97;1.50;;;;;;;9.29;nan;96337.59;5074272;28;20588;-71
2023/03/09 06:15:52;;;;;;;6.80;1.77;;;;;;;9.27;nan;96345.00;5073812;28;20241;-71
2023/03/09 06:18:18;;;;;;;9.20;1.70;;;;;;;9.32;nan;96348.50;5073668;28;20574;-71
2023/03/09 06:20:45;;;;;;;6.93;1.73;;;;;;;9.28;nan;96339.44;5074215;28;20325;-71
2023/03/09 06:23:11;;;;;;;4.33;1.43;;;;;;;9.40;nan;96352.53;5074071;28;20228;-71
2023/03/09 06:25:39;;;;;;;6.93;1.93;;;;;;;9.34;nan;96345.59;5074097;28;20219;-71
2023/03/09 06:28:05;;;;;;;8.93;1.93;;;;;;;9.43;nan;96352.03;5074226;28;20204;-71
2023/03/09 06:30:32;;;;;;;12.90;2.10;;;;;;;9.54;nan;96359.81;5073251;28;20208;-71
2023/03/09 06:32:59;;;;;;;5.37;1.33;;;;;;;9.52;nan;96354.00;5074058;28;20221;-70
2023/03/09 06:35:25;;;;;;;6.07;1.57;;;;;;;9.55;nan;96369.38;5073316;28;20529;-71
2023/03/09 06:37:52;;;;;;;8.97;1.57;;;;;;;9.52;nan;96369.91;5073484;28;20215;-71
2023/03/09 06:40:18;;;;;;;5.03;1.80;;;;;;;9.46;nan;96356.84;5073774;28;20209;-71
2023/03/09 06:42:46;;;;;;;5.83;1.67;;;;;;;9.39;nan;96351.75;5073809;28;20274;-71
2023/03/09 06:45:12;;;;;;;6.47;1.63;;;;;;;9.41;nan;96367.41;5073619;28;20207;-71
2023/03/09 06:47:39;;;;;;;5.00;1.60;;;;;;;9.32;nan;96363.63;5073733;28;20205;-71
2023/03/09 06:50:05;;;;;;;6.67;1.63;;;;;;;9.32;nan;96360.97;5073457;28;20211;-71
2023/03/09 06:52:32;;;;;;;5.40;1.80;;;;;;;9.35;nan;96355.97;5073179;28;20220;-71
2023/03/09 06:54:58;;;;;;;6.00;1.47;;;;;;;9.34;nan;96364.16;5073342;28;20205;-71
2023/03/09 06:57:24;;;;;;;5.67;1.57;;;;;;;9.30;nan;96378.97;5073510;28;20212;-71
2023/03/09 06:59:51;;;;;;;8.57;2.33;;;;;;;9.36;nan;96383.25;5073328;28;20204;-71
2023/03/09 07:02:17;;;;;;;5.97;1.90;;;;;;;9.41;nan;96386.78;5072569;28;20231;-71
2023/03/09 07:04:43;;;;;;;3.90;1.67;;;;;;;9.48;nan;96391.88;5072877;28;20667;-71
2023/03/09 07:07:10;;;;;;;4.40;1.60;;;;;;;9.44;nan;96390.78;5072929;28;20205;-71
2023/03/09 07:09:36;;;;;;;5.07;1.60;;;;;;;9.50;nan;96406.47;5072901;28;20640;-71
2023/03/09 07:12:02;;;;;;;6.93;1.90;;;;;;;9.64;nan;96415.63;5072959;28;20251;-71
2023/03/09 07:14:29;;;;;;;5.57;2.10;;;;;;;9.81;nan;96418.13;5072845;28;20204;-71
2023/03/09 07:16:56;;;;;;;4.10;1.60;;;;;;;9.92;nan;96414.53;5072905;28;20575;-71
2023/03/09 07:19:23;;;;;;;11.43;2.13;;;;;;;10.11;nan;96413.09;5073157;28;20207;-72
2023/03/09 07:21:50;;;;;;;5.30;1.73;;;;;;;10.15;nan;96427.47;5073081;28;20224;-71
2023/03/09 07:24:18;;;;;;;5.97;1.93;;;;;;;10.18;nan;96422.44;5073540;28;20311;-71
2023/03/09 07:26:44;;;;;;;6.70;1.57;;;;;;;10.22;nan;96417.41;5073082;28;20201;-71
2023/03/09 07:29:10;;;;;;;6.03;1.73;;;;;;;10.19;nan;96415.28;5073001;28;20209;-71
2023/03/09 07:31:37;;;;;;;5.33;1.70;;;;;;;10.15;nan;96415.00;5072413;28;20205;-71
2023/03/09 07:34:03;;;;;;;7.60;1.80;;;;;;;10.24;nan;96423.28;5072725;28;20567;-71
2023/03/09 07:36:30;;;;;;;4.20;1.40;;;;;;;10.33;nan;96433.16;5072893;28;20227;-71
2023/03/09 07:38:56;;;;;;;3.77;1.37;;;;;;;10.45;nan;96433.75;5072758;28;20291;-71
2023/03/09 07:41:22;;;;;;;5.77;1.70;;;;;;;10.67;nan;96449.56;5072892;28;20212;-71
2023/03/09 07:43:49;;;;;;;6.90;1.50;;;;;;;10.76;nan;96445.34;5071714;28;20232;-71
2023/03/09 07:46:17;;;;;;;4.13;1.53;;;;;;;10.72;nan;96453.03;5072743;28;20209;-72
2023/03/09 07:49:31;;;;;;;7.40;1.57;;;;;;;10.71;nan;96451.47;5072562;28;20235;-72
2023/03/09 07:51:57;;;;;;;5.07;1.43;;;;;;;10.81;nan;96462.13;5072697;28;20220;-72
2023/03/09 07:54:24;;;;;;;5.50;1.70;;;;;;;10.89;nan;96452.84;5072718;28;20200;-72
2023/03/09 07:56:51;;;;;;;5.27;1.43;;;;;;;11.02;nan;96461.16;5072669;28;20742;-72
2023/03/09 07:59:18;;;;;;;3.93;1.50;;;;;;;11.22;nan;96467.63;5072800;28;20200;-72
2023/03/09 08:01:44;;;;;;;4.23;1.47;;;;;;;11.39;nan;96462.91;5072430;28;20212;-72
2023/03/09 08:04:12;;;;;;;3.90;1.27;;;;;;;11.57;nan;96463.19;5072629;28;20582;-72
2023/03/09 08:06:39;;;;;;;4.20;1.20;;;;;;;11.61;nan;96464.28;5072796;28;20299;-72
2023/03/09 08:09:07;;;;;;;4.30;1.50;;;;;;;11.68;nan;96472.84;5071738;28;20206;-73
2023/03/09 08:11:34;;;;;;;4.10;1.20;;;;;;;11.53;nan;96479.94;5072874;28;20206;-72
2023/03/09 08:14:01;;;;;;;7.23;1.70;;;;;;;11.50;nan;96491.94;5072132;28;20286;-72
2023/03/09 08:16:27;;;;;;;6.07;1.33;;;;;;;11.36;nan;96496.13;5072331;28;20227;-72
2023/03/09 08:18:54;;;;;;;4.77;1.17;;;;;;;11.48;nan;96503.91;5072728;28;20668;-72
2023/03/09 08:21:21;;;;;;;4.10;1.13;;;;;;;11.69;nan;96497.56;5072242;28;20290;-72
2023/03/09 08:23:47;;;;;;;3.17;1.23;;;;;;;11.74;nan;96498.38;5072269;28;20228;-72
2023/03/09 08:26:18;;;;;;;3.23;1.30;;;;;;;11.78;nan;96504.78;5072257;28;20218;-72
2023/03/09 08:28:46;;;;;;;5.40;1.40;;;;;;;11.82;nan;96503.19;5072298;28;20196;-72
2023/03/09 08:31:16;;;;;;;2.57;1.00;;;;;;;11.68;nan;96504.78;5072547;28;20217;-72
2023/03/09 08:33:43;;;;;;;2.80;0.90;;;;;;;11.72;nan;96515.69;5072145;28;20252;-72
2023/03/09 08:36:15;;;;;;;3.10;1.30;;;;;;;11.67;nan;96524.44;5072303;28;20213;-72
2023/03/09 08:38:42;;;;;;;4.87;1.10;;;;;;;11.61;nan;96530.81;5072289;28;20522;-72
2023/03/09 08:41:09;;;;;;;2.47;0.70;;;;;;;11.70;nan;96528.47;5072427;28;20208;-72
2023/03/09 08:43:35;;;;;;;5.27;1.13;;;;;;;11.63;nan;96542.03;5071841;28;20228;-72
2023/03/09 08:46:02;;;;;;;2.77;1.10;;;;;;;11.70;nan;96541.78;5072352;28;20203;-73
2023/03/09 08:48:28;;;;;;;2.97;1.20;;;;;;;11.90;nan;96545.28;5071942;28;20206;-72
2023/03/09 08:50:55;;;;;;;2.77;1.03;;;;;;;11.99;nan;96553.56;5072252;28;20313;-72
2023/03/09 08:53:21;;;;;;;3.63;1.23;;;;;;;12.14;nan;96558.91;5072196;28;20227;-72
2023/03/09 08:55:47;;;;;;;3.07;0.97;;;;;;;12.15;nan;96569.28;5076868;28;20210;-72
2023/03/09 08:58:14;;;;;;;3.10;1.00;;;;;;;12.03;nan;96570.63;5075840;28;20661;-72
2023/03/09 09:00:40;;;;;;;5.30;1.23;;;;;;;12.28;nan;96579.44;5075588;28;20669;-72
2023/03/09 09:03:06;;;;;;;3.20;1.10;;;;;;;12.22;nan;96583.16;5075641;28;20233;-72
2023/03/09 09:05:34;;;;;;;5.97;1.10;;;;;;;11.95;nan;96589.75;5076278;28;20203;-72
2023/03/09 09:08:01;;;;;;;3.93;1.07;;;;;;;11.62;nan;96590.97;5076237;28;20204;-72
2023/03/09 09:10:27;;;;;;;4.77;1.13;;;;;;;11.36;nan;96609.72;5075983;28;20202;-72
2023/03/09 09:12:53;;;;;;;4.03;1.27;;;;;;;11.27;nan;96619.25;5075699;28;20225;-72
2023/03/09 09:15:20;;;;;;;3.83;0.90;;;;;;;11.27;nan;96624.56;5075608;28;20220;-72
2023/03/09 09:17:46;;;;;;;3.47;1.00;;;;;;;11.08;nan;96642.81;5075849;28;20189;-72
2023/03/09 09:20:13;;;;;;;2.90;1.17;;;;;;;10.87;nan;96638.41;5075446;28;20219;-72
2023/03/09 09:22:42;;;;;;;2.87;0.90;;;;;;;10.81;nan;96631.44;5075395;28;20239;-72
2023/03/09 09:25:09;;;;;;;4.17;1.23;;;;;;;11.07;nan;96631.38;5075398;28;20323;-72
2023/03/09 09:27:36;;;;;;;4.67;1.23;;;;;;;11.32;nan;96625.41;5075266;28;20256;-72
2023/03/09 09:30:05;;;;;;;2.27;0.80;;;;;;;11.46;nan;96636.38;5075476;28;20681;-72
2023/03/09 09:32:31;;;;;;;3.70;1.00;;;;;;;11.74;nan;96639.47;5075391;28;20629;-72
2023/03/09 09:34:58;;;;;;;3.27;1.00;;;;;;;11.57;nan;96638.84;5075247;28;20197;-72
2023/03/09 09:37:28;;;;;;;6.17;1.23;;;;;;;11.80;nan;96641.09;5075158;28;20205;-72
2023/03/09 09:39:54;;;;;;;2.63;0.93;;;;;;;11.85;nan;96635.78;5075227;28;20694;-72
2023/03/09 09:42:37;;;;;;;3.00;1.10;;;;;;;11.81;nan;96648.03;5074960;28;20235;-72
2023/03/09 09:45:12;;;;;;;3.23;1.13;;;;;;;11.74;nan;96639.47;5075004;28;20210;-72
2023/03/09 09:47:39;;;;;;;3.97;1.07;;;;;;;11.76;nan;96650.66;5075012;28;20549;-72
2023/03/09 09:50:06;;;;;;;2.23;0.90;;;;;;;11.55;nan;96659.59;5075041;28;20208;-72
2023/03/09 09:52:54;;;;;;;1.83;0.80;;;;;;;11.57;nan;96654.81;5075010;28;20223;-72
2023/03/09 09:55:20;;;;;;;2.27;1.00;;;;;;;11.65;nan;96661.53;5073611;28;20637;-72
2023/03/09 09:58:06;;;;;;;4.17;1.40;;;;;;;11.56;nan;96657.72;5074714;28;20206;-72
2023/03/09 10:00:51;;;;;;;3.20;1.00;;;;;;;11.65;nan;96664.19;5073538;28;20196;-72
2023/03/09 10:03:32;;;;;;;2.20;0.80;;;;;;;11.61;nan;96666.56;5056990;28;20242;-72
2023/03/09 10:06:09;;;;;;;2.47;0.97;;;;;;;11.68;nan;96672.47;5073664;28;20219;-72
2023/03/09 10:08:45;;;;;;;3.07;1.00;;;;;;;11.78;nan;96677.84;5074586;28;20190;-72
2023/03/09 10:11:26;;;;;;;1.43;0.73;;;;;;;11.89;nan;96676.81;5074581;28;20245;-72
2023/03/09 10:14:18;;;;;;;1.97;0.80;;;;;;;11.89;nan;96681.34;5073413;28;20251;-72
2023/03/09 10:16:52;;;;;;;1.17;0.80;;;;;;;11.84;nan;96682.13;5073435;28;20215;-72
2023/03/09 10:19:28;;;;;;;2.17;0.90;;;;;;;11.83;nan;96682.38;5074686;28;20192;-72
2023/03/09 10:22:00;;;;;;;1.57;0.80;;;;;;;11.82;nan;96697.56;5074040;28;20227;-72
2023/03/09 10:24:35;;;;;;;3.17;1.20;;;;;;;11.83;nan;96693.03;5073924;28;20620;-72
2023/03/09 10:27:15;;;;;;;2.30;1.10;;;;;;;11.87;nan;96699.44;5074596;28;20203;-72
2023/03/09 10:30:01;;;;;;;2.40;0.87;;;;;;;12.03;nan;96696.56;5074392;28;20192;-72
2023/03/09 10:32:57;;;;;;;2.40;0.83;;;;;;;11.95;nan;96706.94;5072991;28;20228;-72
2023/03/09 10:35:43;;;;;;;4.30;0.90;;;;;;;11.81;nan;96698.63;5074034;28;20211;-72
2023/03/09 10:38:14;;;;;;;2.50;0.80;;;;;;;12.00;nan;96698.97;5073758;28;20273;-72
2023/03/09 10:40:47;;;;;;;3.67;0.70;;;;;;;12.03;nan;96691.25;5073939;28;20200;-72
2023/03/09 10:43:27;;;;;;;2.43;0.70;;;;;;;12.05;nan;96707.78;5073902;28;20226;-71
2023/03/09 10:45:55;;;;;;;3.80;1.00;;;;;;;12.18;nan;96691.31;5073563;28;20577;-72
2023/03/09 10:48:24;;;;;;;1.50;0.77;;;;;;;12.50;nan;96694.59;5073770;28;20206;-72
2023/03/09 10:51:02;;;;;;;1.23;0.83;;;;;;;12.96;nan;96698.13;5073797;28;20212;-72
2023/03/09 10:53:37;;;;;;;1.17;0.90;;;;;;;12.95;nan;96688.50;5073347;28;20224;-72
2023/03/09 10:56:15;;;;;;;4.17;0.80;;;;;;;12.70;nan;96689.28;5073542;28;20194;-72
2023/03/09 10:58:42;;;;;;;3.30;0.90;;;;;;;12.49;nan;96692.19;5073734;28;20191;-72
2023/03/09 11:01:17;;;;;;;2.40;1.03;;;;;;;12.60;nan;96691.94;5073651;28;20223;-72
2023/03/09 11:03:44;;;;;;;2.77;1.17;;;;;;;12.65;nan;96688.47;5073752;28;20224;-72
2023/03/09 11:06:13;;;;;;;4.83;1.00;;;;;;;12.84;nan;96692.25;5073626;28;20207;-72
2023/03/09 11:08:53;;;;;;;2.43;1.00;;;;;;;12.77;nan;96678.38;5073367;28;20220;-72
2023/03/09 11:11:22;;;;;;;3.67;1.00;;;;;;;12.91;nan;96677.59;5073577;28;20192;-72
2023/03/09 11:13:48;;;;;;;2.63;1.20;;;;;;;13.20;nan;96677.88;5072838;28;20706;-73
2023/03/09 11:16:24;;;;;;;3.00;1.07;;;;;;;13.10;nan;96692.00;5072841;28;20238;-72
2023/03/09 11:19:11;;;;;;;4.87;1.40;;;;;;;12.94;nan;96679.69;5073589;28;20196;-72
2023/03/09 11:21:40;;;;;;;3.40;0.93;;;;;;;12.93;nan;96680.00;5071948;28;20582;-72
2023/03/09 11:24:09;;;;;;;3.77;1.47;;;;;;;12.74;nan;96678.88;5073342;28;20224;-72
2023/03/09 11:26:40;;;;;;;4.60;1.27;;;;;;;13.15;nan;96684.00;5073144;28;20207;-72
2023/03/09 11:29:39;;;;;;;3.63;1.20;;;;;;;13.32;nan;96676.53;5073561;28;20192;-72
2023/03/09 11:32:10;;;;;;;4.70;1.23;;;;;;;13.16;nan;96674.94;5073205;28;20227;-72
2023/03/09 11:34:40;;;;;;;5.80;1.40;;;;;;;13.21;nan;96680.25;5072976;28;20280;-72
2023/03/09 11:37:14;;;;;;;4.70;1.53;;;;;;;13.13;nan;96669.34;5073155;28;20204;-72
2023/03/09 11:39:53;;;;;;;4.33;1.03;;;;;;;13.27;nan;96676.53;5073188;28;20221;-72
2023/03/09 11:42:46;;;;;;;4.67;1.23;;;;;;;13.21;nan;96674.91;5072944;28;20239;-72
2023/03/09 11:45:22;;;;;;;5.37;1.30;;;;;;;13.38;nan;96677.31;5072714;28;20216;-72
2023/03/09 11:47:57;;;;;;;2.80;1.00;;;;;;;13.57;nan;96676.47;5072928;28;20210;-72
2023/03/09 11:50:41;;;;;;;2.57;0.93;;;;;;;13.64;nan;96674.31;5071748;28;20204;-72
2023/03/09 11:53:17;;;;;;;5.03;1.20;;;;;;;13.41;nan;96668.75;5071869;28;20235;-72
2023/03/09 11:55:48;;;;;;;5.23;1.00;;;;;;;13.32;nan;96687.19;5073070;28;20196;-72
2023/03/09 11:58:23;;;;;;;4.87;1.40;;;;;;;13.31;nan;96688.28;5072812;28;20199;-72
2023/03/09 12:00:56;;;;;;;4.43;1.50;;;;;;;13.33;nan;96685.31;5073448;28;20295;-72
2023/03/09 12:03:26;;;;;;;2.30;1.00;;;;;;;13.46;nan;96690.91;5072691;28;20728;-72